CheckWX is a tool to help pilots better visualize weather data.  It is not intended as a substitute for an official pre-flight weather briefing.

04:07:58 UTC

EGPI METAR
Islay Airport
Port Ellen, United Kingdom
Current

48 mins ago

EGPI 200320Z AUTO 13020KT 100V160 3000 BR OVC008/// 09/08 Q1004
Observed
Nov-20 @ 03:20 UTC
Wind
  • 130° at 20 KTS
Visibility
3,000 meters
Flight Rules
IFR
Conditions
Mist
Cloud Levels
  • Overcast at 800' AGL
Temperature
C / 48°F
Dewpoint
C / 46°F
Humidity
94%
Altimeter
29.65" Hg
Pressure
1003.92 hPa
Previous

1 hour ago

EGPI 200250Z AUTO 13021KT 090V170 9999 BKN009/// 09/08 Q1004 RERA
Observed
Nov-20 @ 02:50 UTC
Wind
  • 130° at 21 KTS
Visibility
10,000+ meters
Flight Rules
IFR
Cloud Levels
  • Broken at 900' AGL
Temperature
C / 48°F
Dewpoint
C / 46°F
Humidity
94%
Altimeter
29.65" Hg
Pressure
1003.92 hPa
Previous

2 hours ago

EGPI 200220Z AUTO 13020KT 100V160 9999 BKN008/// 09/09 Q1004 RERA
Observed
Nov-20 @ 02:20 UTC
Wind
  • 130° at 20 KTS
Visibility
10,000+ meters
Flight Rules
IFR
Cloud Levels
  • Broken at 800' AGL
Temperature
C / 48°F
Dewpoint
C / 48°F
Humidity
100%
Altimeter
29.65" Hg
Pressure
1003.92 hPa